Weather at Campo di Volo "Senigallia Nord" [CLOSED]

Public forecast

Using degrees Celsius for public forecast. Weather courtesy of forecast.io.

Closest aviation weather report (METAR) to Campo di Volo "Senigallia Nord"

Closest report is Marche Airport, 10.7 nm (19.8 km) SE.

2024/05/26 14:20 (retrieved 29 minutes ago)

LIPY 261420Z AUTO 04008KT 9999 NCD 22/13 Q1017

Closest aviation forecast (TAF) to Campo di Volo "Senigallia Nord"

Closest forecast is Marche Airport, 10.7 nm (19.8 km) SE.

2024/05/26 12:21 (retrieved 2 hours ago)

TAF LIPY 261100Z 2612/2712 36012KT CAVOK BECMG 2616/2618 VRB05KT